sensor_id;sensor_type;location;lat;lon;timestamp;P1;durP1;ratioP1;P2;durP2;ratioP2
32611;SDS011;19030;49.478;8.986;2023-03-12T00:01:49;7.03;;;3.30;;
32611;SDS011;19030;49.478;8.986;2023-03-12T00:03:50;9.60;;;3.47;;
32611;SDS011;19030;49.478;8.986;2023-03-12T00:05:50;9.73;;;3.83;;
32611;SDS011;19030;49.478;8.986;2023-03-12T00:07:51;5.20;;;2.80;;
32611;SDS011;19030;49.478;8.986;2023-03-12T00:09:52;8.23;;;3.47;;
32611;SDS011;19030;49.478;8.986;2023-03-12T00:11:53;10.73;;;3.58;;
32611;SDS011;19030;49.478;8.986;2023-03-12T00:13:55;8.40;;;3.63;;
32611;SDS011;19030;49.478;8.986;2023-03-12T00:16:01;10.55;;;3.05;;
32611;SDS011;19030;49.478;8.986;2023-03-12T00:18:06;8.27;;;3.60;;
32611;SDS011;19030;49.478;8.986;2023-03-12T00:20:07;6.65;;;2.95;;
32611;SDS011;19030;49.478;8.986;2023-03-12T00:22:08;6.78;;;2.92;;
32611;SDS011;19030;49.478;8.986;2023-03-12T00:24:08;8.25;;;3.35;;
32611;SDS011;19030;49.478;8.986;2023-03-12T00:26:10;7.60;;;3.45;;
32611;SDS011;19030;49.478;8.986;2023-03-12T00:28:12;7.45;;;3.42;;
32611;SDS011;19030;49.478;8.986;2023-03-12T00:30:12;9.05;;;3.70;;
32611;SDS011;19030;49.478;8.986;2023-03-12T00:32:13;9.82;;;3.40;;
32611;SDS011;19030;49.478;8.986;2023-03-12T00:34:17;7.82;;;3.10;;
32611;SDS011;19030;49.478;8.986;2023-03-12T00:36:19;8.02;;;3.70;;
32611;SDS011;19030;49.478;8.986;2023-03-12T00:38:23;6.20;;;3.30;;
32611;SDS011;19030;49.478;8.986;2023-03-12T00:40:23;8.85;;;3.95;;
32611;SDS011;19030;49.478;8.986;2023-03-12T00:42:24;7.75;;;2.90;;
32611;SDS011;19030;49.478;8.986;2023-03-12T00:44:25;10.65;;;3.20;;
32611;SDS011;19030;49.478;8.986;2023-03-12T00:46:25;6.28;;;2.97;;
32611;SDS011;19030;49.478;8.986;2023-03-12T00:48:26;9.18;;;3.53;;
32611;SDS011;19030;49.478;8.986;2023-03-12T00:50:27;9.55;;;3.90;;
32611;SDS011;19030;49.478;8.986;2023-03-12T00:52:27;7.85;;;3.65;;
32611;SDS011;19030;49.478;8.986;2023-03-12T00:54:28;9.73;;;3.60;;
32611;SDS011;19030;49.478;8.986;2023-03-12T00:56:32;9.40;;;4.47;;
32611;SDS011;19030;49.478;8.986;2023-03-12T00:58:34;13.48;;;5.18;;
32611;SDS011;19030;49.478;8.986;2023-03-12T01:00:34;19.48;;;7.68;;
32611;SDS011;19030;49.478;8.986;2023-03-12T01:02:36;28.20;;;9.52;;
32611;SDS011;19030;49.478;8.986;2023-03-12T01:04:38;31.08;;;10.88;;
32611;SDS011;19030;49.478;8.986;2023-03-12T01:06:38;39.67;;;13.13;;
32611;SDS011;19030;49.478;8.986;2023-03-12T01:08:39;29.85;;;10.07;;
32611;SDS011;19030;49.478;8.986;2023-03-12T01:10:41;12.70;;;4.70;;
32611;SDS011;19030;49.478;8.986;2023-03-12T01:12:42;9.43;;;3.33;;
32611;SDS011;19030;49.478;8.986;2023-03-12T01:14:43;8.05;;;3.50;;
32611;SDS011;19030;49.478;8.986;2023-03-12T01:16:44;8.48;;;3.50;;
32611;SDS011;19030;49.478;8.986;2023-03-12T01:18:46;8.18;;;3.30;;
32611;SDS011;19030;49.478;8.986;2023-03-12T01:20:46;8.48;;;3.50;;
32611;SDS011;19030;49.478;8.986;2023-03-12T01:22:47;8.80;;;3.97;;
32611;SDS011;19030;49.478;8.986;2023-03-12T01:24:48;14.13;;;4.78;;
32611;SDS011;19030;49.478;8.986;2023-03-12T01:26:49;12.85;;;4.00;;
32611;SDS011;19030;49.478;8.986;2023-03-12T01:28:49;8.13;;;4.07;;
32611;SDS011;19030;49.478;8.986;2023-03-12T01:30:50;8.23;;;3.40;;
32611;SDS011;19030;49.478;8.986;2023-03-12T01:32:51;9.77;;;3.83;;
32611;SDS011;19030;49.478;8.986;2023-03-12T01:34:52;8.20;;;4.07;;
32611;SDS011;19030;49.478;8.986;2023-03-12T01:36:52;7.82;;;3.33;;
32611;SDS011;19030;49.478;8.986;2023-03-12T01:38:55;10.07;;;4.68;;
32611;SDS011;19030;49.478;8.986;2023-03-12T01:40:57;11.13;;;3.35;;
32611;SDS011;19030;49.478;8.986;2023-03-12T01:50:09;9.10;;;3.78;;
32611;SDS011;19030;49.478;8.986;2023-03-12T01:52:10;8.23;;;4.13;;
32611;SDS011;19030;49.478;8.986;2023-03-12T01:54:37;9.10;;;4.05;;
32611;SDS011;19030;49.478;8.986;2023-03-12T01:56:42;12.85;;;4.38;;
32611;SDS011;19030;49.478;8.986;2023-03-12T01:58:45;6.85;;;3.85;;
32611;SDS011;19030;49.478;8.986;2023-03-12T02:00:50;9.73;;;3.50;;
32611;SDS011;19030;49.478;8.986;2023-03-12T02:02:51;8.50;;;3.60;;
32611;SDS011;19030;49.478;8.986;2023-03-12T02:05:00;6.55;;;4.00;;
32611;SDS011;19030;49.478;8.986;2023-03-12T02:07:09;7.03;;;3.42;;
32611;SDS011;19030;49.478;8.986;2023-03-12T02:09:15;10.27;;;3.42;;
32611;SDS011;19030;49.478;8.986;2023-03-12T02:11:20;7.90;;;3.38;;
32611;SDS011;19030;49.478;8.986;2023-03-12T02:13:20;7.25;;;3.55;;
32611;SDS011;19030;49.478;8.986;2023-03-12T02:15:21;8.18;;;3.55;;
32611;SDS011;19030;49.478;8.986;2023-03-12T02:17:22;11.13;;;4.15;;
32611;SDS011;19030;49.478;8.986;2023-03-12T02:19:41;8.60;;;3.85;;
32611;SDS011;19030;49.478;8.986;2023-03-12T02:21:50;12.00;;;4.00;;
32611;SDS011;19030;49.478;8.986;2023-03-12T02:23:54;7.28;;;3.33;;
32611;SDS011;19030;49.478;8.986;2023-03-12T02:26:05;10.48;;;4.70;;
32611;SDS011;19030;49.478;8.986;2023-03-12T02:28:11;10.82;;;3.63;;
32611;SDS011;19030;49.478;8.986;2023-03-12T02:30:13;8.45;;;3.85;;
32611;SDS011;19030;49.478;8.986;2023-03-12T02:32:19;9.18;;;3.92;;
32611;SDS011;19030;49.478;8.986;2023-03-12T02:34:24;7.90;;;3.30;;
32611;SDS011;19030;49.478;8.986;2023-03-12T02:36:25;9.00;;;3.75;;
32611;SDS011;19030;49.478;8.986;2023-03-12T02:40:34;7.63;;;4.00;;
32611;SDS011;19030;49.478;8.986;2023-03-12T02:42:38;8.67;;;4.20;;
32611;SDS011;19030;49.478;8.986;2023-03-12T02:44:39;7.78;;;3.50;;
32611;SDS011;19030;49.478;8.986;2023-03-12T02:46:43;6.45;;;3.25;;
32611;SDS011;19030;49.478;8.986;2023-03-12T02:48:46;7.53;;;3.55;;
32611;SDS011;19030;49.478;8.986;2023-03-12T02:50:46;9.05;;;3.83;;
32611;SDS011;19030;49.478;8.986;2023-03-12T02:52:47;8.02;;;3.15;;
32611;SDS011;19030;49.478;8.986;2023-03-12T02:54:48;9.35;;;3.85;;
32611;SDS011;19030;49.478;8.986;2023-03-12T02:56:50;8.82;;;3.40;;
32611;SDS011;19030;49.478;8.986;2023-03-12T02:58:51;7.55;;;3.80;;
32611;SDS011;19030;49.478;8.986;2023-03-12T03:00:53;7.72;;;3.67;;
32611;SDS011;19030;49.478;8.986;2023-03-12T03:02:53;8.25;;;3.28;;
32611;SDS011;19030;49.478;8.986;2023-03-12T03:04:54;6.57;;;2.97;;
32611;SDS011;19030;49.478;8.986;2023-03-12T03:06:55;7.95;;;3.42;;
32611;SDS011;19030;49.478;8.986;2023-03-12T03:08:55;11.77;;;3.15;;
32611;SDS011;19030;49.478;8.986;2023-03-12T03:10:56;7.07;;;2.92;;
32611;SDS011;19030;49.478;8.986;2023-03-12T03:12:57;7.63;;;3.50;;
32611;SDS011;19030;49.478;8.986;2023-03-12T03:14:57;7.18;;;3.20;;
32611;SDS011;19030;49.478;8.986;2023-03-12T03:16:58;9.23;;;3.47;;
32611;SDS011;19030;49.478;8.986;2023-03-12T03:18:59;9.00;;;3.50;;
32611;SDS011;19030;49.478;8.986;2023-03-12T03:21:01;9.48;;;3.85;;
32611;SDS011;19030;49.478;8.986;2023-03-12T03:23:06;11.65;;;3.67;;
32611;SDS011;19030;49.478;8.986;2023-03-12T03:25:07;8.15;;;3.83;;
32611;SDS011;19030;49.478;8.986;2023-03-12T03:27:09;6.97;;;3.47;;
32611;SDS011;19030;49.478;8.986;2023-03-12T03:29:10;10.98;;;3.70;;
32611;SDS011;19030;49.478;8.986;2023-03-12T03:31:10;7.45;;;3.75;;
32611;SDS011;19030;49.478;8.986;2023-03-12T03:33:13;10.57;;;3.90;;
32611;SDS011;19030;49.478;8.986;2023-03-12T03:35:14;6.43;;;3.45;;
32611;SDS011;19030;49.478;8.986;2023-03-12T03:37:15;8.38;;;3.95;;
32611;SDS011;19030;49.478;8.986;2023-03-12T03:39:15;7.40;;;3.17;;
32611;SDS011;19030;49.478;8.986;2023-03-12T03:41:17;9.75;;;3.65;;
32611;SDS011;19030;49.478;8.986;2023-03-12T03:43:19;10.57;;;3.40;;
32611;SDS011;19030;49.478;8.986;2023-03-12T03:45:20;8.75;;;3.67;;
32611;SDS011;19030;49.478;8.986;2023-03-12T03:47:20;10.77;;;3.50;;
32611;SDS011;19030;49.478;8.986;2023-03-12T03:49:21;6.53;;;3.63;;
32611;SDS011;19030;49.478;8.986;2023-03-12T03:51:22;7.88;;;4.32;;
32611;SDS011;19030;49.478;8.986;2023-03-12T03:53:28;10.80;;;3.60;;
32611;SDS011;19030;49.478;8.986;2023-03-12T03:55:28;6.03;;;2.97;;
32611;SDS011;19030;49.478;8.986;2023-03-12T03:57:29;12.82;;;3.30;;
32611;SDS011;19030;49.478;8.986;2023-03-12T03:59:30;8.98;;;3.60;;
32611;SDS011;19030;49.478;8.986;2023-03-12T04:01:31;7.07;;;3.58;;
32611;SDS011;19030;49.478;8.986;2023-03-12T04:03:32;7.00;;;3.60;;
32611;SDS011;19030;49.478;8.986;2023-03-12T04:05:33;7.93;;;3.70;;
32611;SDS011;19030;49.478;8.986;2023-03-12T04:07:34;7.53;;;3.22;;
32611;SDS011;19030;49.478;8.986;2023-03-12T04:09:35;8.05;;;3.33;;
32611;SDS011;19030;49.478;8.986;2023-03-12T04:11:35;10.45;;;3.70;;
32611;SDS011;19030;49.478;8.986;2023-03-12T04:13:38;8.43;;;3.50;;
32611;SDS011;19030;49.478;8.986;2023-03-12T04:15:50;6.75;;;3.40;;
32611;SDS011;19030;49.478;8.986;2023-03-12T04:17:52;7.82;;;3.65;;
32611;SDS011;19030;49.478;8.986;2023-03-12T04:19:54;8.77;;;3.50;;
32611;SDS011;19030;49.478;8.986;2023-03-12T04:21:55;10.10;;;4.10;;
32611;SDS011;19030;49.478;8.986;2023-03-12T04:23:56;10.43;;;4.03;;
32611;SDS011;19030;49.478;8.986;2023-03-12T04:26:01;8.82;;;4.60;;
32611;SDS011;19030;49.478;8.986;2023-03-12T04:28:03;8.95;;;5.22;;
32611;SDS011;19030;49.478;8.986;2023-03-12T04:30:04;8.15;;;3.92;;
32611;SDS011;19030;49.478;8.986;2023-03-12T04:32:07;9.50;;;3.70;;
32611;SDS011;19030;49.478;8.986;2023-03-12T04:34:09;8.30;;;3.50;;
32611;SDS011;19030;49.478;8.986;2023-03-12T04:36:10;8.43;;;3.88;;
32611;SDS011;19030;49.478;8.986;2023-03-12T04:38:15;7.55;;;3.72;;
32611;SDS011;19030;49.478;8.986;2023-03-12T04:40:16;7.35;;;3.35;;
32611;SDS011;19030;49.478;8.986;2023-03-12T04:42:18;8.38;;;3.67;;
32611;SDS011;19030;49.478;8.986;2023-03-12T04:44:20;11.80;;;4.03;;
32611;SDS011;19030;49.478;8.986;2023-03-12T04:46:21;8.32;;;3.72;;
32611;SDS011;19030;49.478;8.986;2023-03-12T04:48:22;8.93;;;3.97;;
32611;SDS011;19030;49.478;8.986;2023-03-12T04:50:25;13.32;;;4.22;;
32611;SDS011;19030;49.478;8.986;2023-03-12T04:52:25;8.15;;;3.60;;
32611;SDS011;19030;49.478;8.986;2023-03-12T04:54:26;7.75;;;3.60;;
32611;SDS011;19030;49.478;8.986;2023-03-12T04:56:27;11.48;;;4.32;;
32611;SDS011;19030;49.478;8.986;2023-03-12T04:58:28;7.53;;;3.70;;
32611;SDS011;19030;49.478;8.986;2023-03-12T05:00:29;8.32;;;3.90;;
32611;SDS011;19030;49.478;8.986;2023-03-12T05:02:29;9.30;;;4.00;;
32611;SDS011;19030;49.478;8.986;2023-03-12T05:04:30;8.18;;;3.97;;
32611;SDS011;19030;49.478;8.986;2023-03-12T05:06:31;7.82;;;4.07;;
32611;SDS011;19030;49.478;8.986;2023-03-12T05:08:31;9.45;;;3.95;;
32611;SDS011;19030;49.478;8.986;2023-03-12T05:10:32;9.25;;;3.80;;
32611;SDS011;19030;49.478;8.986;2023-03-12T05:12:33;8.32;;;4.00;;
32611;SDS011;19030;49.478;8.986;2023-03-12T05:14:33;10.18;;;4.20;;
32611;SDS011;19030;49.478;8.986;2023-03-12T05:16:34;9.55;;;3.92;;
32611;SDS011;19030;49.478;8.986;2023-03-12T05:18:35;9.15;;;4.07;;
32611;SDS011;19030;49.478;8.986;2023-03-12T05:20:36;6.70;;;3.45;;
32611;SDS011;19030;49.478;8.986;2023-03-12T05:22:37;10.35;;;3.70;;
32611;SDS011;19030;49.478;8.986;2023-03-12T05:24:38;6.68;;;3.70;;
32611;SDS011;19030;49.478;8.986;2023-03-12T05:26:39;9.45;;;3.35;;
32611;SDS011;19030;49.478;8.986;2023-03-12T05:28:46;5.63;;;3.25;;
32611;SDS011;19030;49.478;8.986;2023-03-12T05:30:47;10.65;;;3.13;;
32611;SDS011;19030;49.478;8.986;2023-03-12T05:32:48;8.75;;;3.72;;
32611;SDS011;19030;49.478;8.986;2023-03-12T05:34:48;9.52;;;3.72;;
32611;SDS011;19030;49.478;8.986;2023-03-12T05:36:50;10.30;;;3.70;;
32611;SDS011;19030;49.478;8.986;2023-03-12T05:38:55;8.00;;;3.88;;
32611;SDS011;19030;49.478;8.986;2023-03-12T05:40:57;7.75;;;3.72;;
32611;SDS011;19030;49.478;8.986;2023-03-12T05:42:59;13.43;;;5.97;;
32611;SDS011;19030;49.478;8.986;2023-03-12T05:45:00;15.13;;;5.68;;
32611;SDS011;19030;49.478;8.986;2023-03-12T05:47:01;14.85;;;5.53;;
32611;SDS011;19030;49.478;8.986;2023-03-12T05:49:02;11.20;;;4.45;;
32611;SDS011;19030;49.478;8.986;2023-03-12T05:51:05;9.43;;;4.00;;
32611;SDS011;19030;49.478;8.986;2023-03-12T05:53:07;7.32;;;3.72;;
32611;SDS011;19030;49.478;8.986;2023-03-12T05:55:08;8.00;;;3.75;;
32611;SDS011;19030;49.478;8.986;2023-03-12T05:57:08;7.55;;;3.90;;
32611;SDS011;19030;49.478;8.986;2023-03-12T05:59:09;9.82;;;4.15;;
32611;SDS011;19030;49.478;8.986;2023-03-12T06:01:16;11.25;;;3.95;;
32611;SDS011;19030;49.478;8.986;2023-03-12T06:03:18;8.48;;;3.83;;
32611;SDS011;19030;49.478;8.986;2023-03-12T06:05:19;7.90;;;4.13;;
32611;SDS011;19030;49.478;8.986;2023-03-12T06:07:19;8.45;;;4.15;;
32611;SDS011;19030;49.478;8.986;2023-03-12T06:09:20;10.70;;;3.90;;
32611;SDS011;19030;49.478;8.986;2023-03-12T06:11:21;7.90;;;3.58;;
32611;SDS011;19030;49.478;8.986;2023-03-12T06:13:22;9.00;;;3.72;;
32611;SDS011;19030;49.478;8.986;2023-03-12T06:15:22;7.15;;;3.47;;
32611;SDS011;19030;49.478;8.986;2023-03-12T06:17:23;9.13;;;3.83;;
32611;SDS011;19030;49.478;8.986;2023-03-12T06:19:24;8.13;;;4.07;;
32611;SDS011;19030;49.478;8.986;2023-03-12T06:21:26;7.43;;;3.80;;
32611;SDS011;19030;49.478;8.986;2023-03-12T06:23:33;8.55;;;3.47;;
32611;SDS011;19030;49.478;8.986;2023-03-12T06:25:34;9.45;;;4.00;;
32611;SDS011;19030;49.478;8.986;2023-03-12T06:27:34;7.10;;;3.40;;
32611;SDS011;19030;49.478;8.986;2023-03-12T06:29:35;8.00;;;3.40;;
32611;SDS011;19030;49.478;8.986;2023-03-12T06:31:35;9.55;;;3.72;;
32611;SDS011;19030;49.478;8.986;2023-03-12T06:33:38;7.90;;;2.97;;
32611;SDS011;19030;49.478;8.986;2023-03-12T06:35:39;7.07;;;4.07;;
32611;SDS011;19030;49.478;8.986;2023-03-12T06:37:40;6.47;;;3.55;;
32611;SDS011;19030;49.478;8.986;2023-03-12T06:39:41;8.77;;;3.83;;
32611;SDS011;19030;49.478;8.986;2023-03-12T06:41:42;11.85;;;4.47;;
32611;SDS011;19030;49.478;8.986;2023-03-12T06:43:42;8.65;;;4.50;;
32611;SDS011;19030;49.478;8.986;2023-03-12T06:45:44;10.20;;;5.78;;
32611;SDS011;19030;49.478;8.986;2023-03-12T06:47:44;9.60;;;5.28;;
32611;SDS011;19030;49.478;8.986;2023-03-12T06:49:45;8.40;;;4.00;;
32611;SDS011;19030;49.478;8.986;2023-03-12T06:51:45;10.70;;;3.78;;
32611;SDS011;19030;49.478;8.986;2023-03-12T06:53:46;10.50;;;4.70;;
32611;SDS011;19030;49.478;8.986;2023-03-12T06:55:48;10.18;;;4.05;;
32611;SDS011;19030;49.478;8.986;2023-03-12T06:57:49;9.07;;;3.92;;
32611;SDS011;19030;49.478;8.986;2023-03-12T06:59:50;7.00;;;3.53;;
32611;SDS011;19030;49.478;8.986;2023-03-12T07:01:51;9.30;;;3.90;;
32611;SDS011;19030;49.478;8.986;2023-03-12T07:03:52;8.40;;;3.60;;
32611;SDS011;19030;49.478;8.986;2023-03-12T07:05:56;7.95;;;4.25;;
32611;SDS011;19030;49.478;8.986;2023-03-12T07:07:57;14.40;;;4.70;;
32611;SDS011;19030;49.478;8.986;2023-03-12T07:09:58;9.77;;;4.95;;
32611;SDS011;19030;49.478;8.986;2023-03-12T07:11:59;11.77;;;5.13;;
32611;SDS011;19030;49.478;8.986;2023-03-12T07:13:59;10.80;;;5.45;;
32611;SDS011;19030;49.478;8.986;2023-03-12T07:16:01;12.60;;;5.22;;
32611;SDS011;19030;49.478;8.986;2023-03-12T07:18:06;11.90;;;4.53;;
32611;SDS011;19030;49.478;8.986;2023-03-12T07:20:08;11.60;;;5.10;;
32611;SDS011;19030;49.478;8.986;2023-03-12T07:22:09;12.75;;;6.00;;
32611;SDS011;19030;49.478;8.986;2023-03-12T07:24:10;10.90;;;6.32;;
32611;SDS011;19030;49.478;8.986;2023-03-12T07:26:10;13.43;;;6.68;;
32611;SDS011;19030;49.478;8.986;2023-03-12T07:28:11;12.88;;;8.00;;
32611;SDS011;19030;49.478;8.986;2023-03-12T07:30:12;13.75;;;7.55;;
32611;SDS011;19030;49.478;8.986;2023-03-12T07:32:13;17.10;;;7.68;;
32611;SDS011;19030;49.478;8.986;2023-03-12T07:34:13;15.13;;;7.45;;
32611;SDS011;19030;49.478;8.986;2023-03-12T07:36:14;23.90;;;9.15;;
32611;SDS011;19030;49.478;8.986;2023-03-12T07:38:15;17.77;;;7.85;;
32611;SDS011;19030;49.478;8.986;2023-03-12T07:40:15;14.30;;;8.32;;
32611;SDS011;19030;49.478;8.986;2023-03-12T07:42:16;21.15;;;8.10;;
32611;SDS011;19030;49.478;8.986;2023-03-12T07:44:18;14.02;;;8.15;;
32611;SDS011;19030;49.478;8.986;2023-03-12T07:46:18;16.38;;;8.85;;
32611;SDS011;19030;49.478;8.986;2023-03-12T07:48:19;16.05;;;7.78;;
32611;SDS011;19030;49.478;8.986;2023-03-12T07:50:19;16.48;;;8.23;;
32611;SDS011;19030;49.478;8.986;2023-03-12T07:52:20;17.35;;;8.25;;
32611;SDS011;19030;49.478;8.986;2023-03-12T07:54:22;16.42;;;7.70;;
32611;SDS011;19030;49.478;8.986;2023-03-12T07:56:27;17.25;;;8.50;;
32611;SDS011;19030;49.478;8.986;2023-03-12T07:58:29;15.95;;;7.60;;
32611;SDS011;19030;49.478;8.986;2023-03-12T08:00:30;14.93;;;7.95;;
32611;SDS011;19030;49.478;8.986;2023-03-12T08:02:31;18.77;;;8.75;;
32611;SDS011;19030;49.478;8.986;2023-03-12T08:04:33;17.27;;;8.95;;
32611;SDS011;19030;49.478;8.986;2023-03-12T08:06:33;14.20;;;8.25;;
32611;SDS011;19030;49.478;8.986;2023-03-12T08:08:34;15.73;;;7.65;;
32611;SDS011;19030;49.478;8.986;2023-03-12T08:10:37;12.02;;;7.57;;
32611;SDS011;19030;49.478;8.986;2023-03-12T08:12:37;14.40;;;7.57;;
32611;SDS011;19030;49.478;8.986;2023-03-12T08:14:38;14.98;;;7.80;;
32611;SDS011;19030;49.478;8.986;2023-03-12T08:16:38;15.38;;;7.78;;
32611;SDS011;19030;49.478;8.986;2023-03-12T08:18:39;24.30;;;11.27;;
32611;SDS011;19030;49.478;8.986;2023-03-12T08:20:42;13.45;;;7.40;;
32611;SDS011;19030;49.478;8.986;2023-03-12T08:22:42;15.43;;;7.47;;
32611;SDS011;19030;49.478;8.986;2023-03-12T08:24:43;12.50;;;6.97;;
32611;SDS011;19030;49.478;8.986;2023-03-12T08:26:44;13.95;;;7.70;;
32611;SDS011;19030;49.478;8.986;2023-03-12T08:28:44;13.93;;;7.47;;
32611;SDS011;19030;49.478;8.986;2023-03-12T08:30:46;20.13;;;7.22;;
32611;SDS011;19030;49.478;8.986;2023-03-12T08:32:47;15.10;;;7.97;;
32611;SDS011;19030;49.478;8.986;2023-03-12T08:34:48;13.65;;;7.20;;
32611;SDS011;19030;49.478;8.986;2023-03-12T08:36:49;16.67;;;7.65;;
32611;SDS011;19030;49.478;8.986;2023-03-12T08:38:49;15.43;;;7.32;;
32611;SDS011;19030;49.478;8.986;2023-03-12T08:40:53;14.55;;;7.25;;
32611;SDS011;19030;49.478;8.986;2023-03-12T08:42:55;18.77;;;7.43;;
32611;SDS011;19030;49.478;8.986;2023-03-12T08:44:56;16.88;;;7.10;;
32611;SDS011;19030;49.478;8.986;2023-03-12T08:46:57;12.55;;;7.22;;
32611;SDS011;19030;49.478;8.986;2023-03-12T08:48:57;15.20;;;8.50;;
32611;SDS011;19030;49.478;8.986;2023-03-12T08:50:58;15.13;;;8.73;;
32611;SDS011;19030;49.478;8.986;2023-03-12T08:53:01;20.42;;;8.70;;
32611;SDS011;19030;49.478;8.986;2023-03-12T08:55:02;15.35;;;7.82;;
32611;SDS011;19030;49.478;8.986;2023-03-12T08:57:02;14.68;;;7.45;;
32611;SDS011;19030;49.478;8.986;2023-03-12T08:59:03;13.65;;;7.07;;
32611;SDS011;19030;49.478;8.986;2023-03-12T09:01:07;17.85;;;7.85;;
32611;SDS011;19030;49.478;8.986;2023-03-12T09:03:12;12.57;;;7.15;;
32611;SDS011;19030;49.478;8.986;2023-03-12T09:05:14;15.38;;;7.22;;
32611;SDS011;19030;49.478;8.986;2023-03-12T09:07:15;14.45;;;6.78;;
32611;SDS011;19030;49.478;8.986;2023-03-12T09:09:19;13.63;;;7.90;;
32611;SDS011;19030;49.478;8.986;2023-03-12T09:11:19;13.80;;;7.10;;
32611;SDS011;19030;49.478;8.986;2023-03-12T09:13:20;11.98;;;6.93;;
32611;SDS011;19030;49.478;8.986;2023-03-12T09:15:20;17.42;;;8.98;;
32611;SDS011;19030;49.478;8.986;2023-03-12T09:17:21;14.45;;;7.18;;
32611;SDS011;19030;49.478;8.986;2023-03-12T09:19:23;16.70;;;8.25;;
32611;SDS011;19030;49.478;8.986;2023-03-12T09:21:23;16.58;;;7.82;;
32611;SDS011;19030;49.478;8.986;2023-03-12T09:23:24;16.25;;;7.95;;
32611;SDS011;19030;49.478;8.986;2023-03-12T09:25:25;17.80;;;7.55;;
32611;SDS011;19030;49.478;8.986;2023-03-12T09:27:26;18.40;;;8.40;;
32611;SDS011;19030;49.478;8.986;2023-03-12T09:29:26;17.35;;;8.23;;
32611;SDS011;19030;49.478;8.986;2023-03-12T09:31:27;12.85;;;7.70;;
32611;SDS011;19030;49.478;8.986;2023-03-12T09:33:27;13.82;;;7.35;;
32611;SDS011;19030;49.478;8.986;2023-03-12T09:35:28;12.82;;;7.60;;
32611;SDS011;19030;49.478;8.986;2023-03-12T09:37:30;12.40;;;7.15;;
32611;SDS011;19030;49.478;8.986;2023-03-12T09:39:34;16.27;;;7.88;;
32611;SDS011;19030;49.478;8.986;2023-03-12T09:41:35;16.15;;;8.70;;
32611;SDS011;19030;49.478;8.986;2023-03-12T09:43:39;17.25;;;7.45;;
32611;SDS011;19030;49.478;8.986;2023-03-12T09:45:44;18.40;;;7.73;;
32611;SDS011;19030;49.478;8.986;2023-03-12T09:47:49;13.32;;;7.65;;
32611;SDS011;19030;49.478;8.986;2023-03-12T09:49:53;18.80;;;8.27;;
32611;SDS011;19030;49.478;8.986;2023-03-12T09:52:20;17.35;;;9.10;;
32611;SDS011;19030;49.478;8.986;2023-03-12T09:56:51;12.43;;;7.57;;
32611;SDS011;19030;49.478;8.986;2023-03-12T09:58:53;12.88;;;8.50;;
32611;SDS011;19030;49.478;8.986;2023-03-12T10:03:26;13.27;;;8.05;;
32611;SDS011;19030;49.478;8.986;2023-03-12T10:05:57;18.83;;;8.43;;
32611;SDS011;19030;49.478;8.986;2023-03-12T10:08:09;16.45;;;9.02;;
32611;SDS011;19030;49.478;8.986;2023-03-12T10:12:43;16.85;;;8.10;;
32611;SDS011;19030;49.478;8.986;2023-03-12T10:19:41;17.00;;;8.40;;
32611;SDS011;19030;49.478;8.986;2023-03-12T10:22:00;15.53;;;8.07;;
32611;SDS011;19030;49.478;8.986;2023-03-12T10:24:10;14.75;;;8.38;;
32611;SDS011;19030;49.478;8.986;2023-03-12T10:30:54;16.10;;;9.20;;
32611;SDS011;19030;49.478;8.986;2023-03-12T10:32:59;16.05;;;9.32;;
32611;SDS011;19030;49.478;8.986;2023-03-12T10:35:12;17.90;;;9.70;;
32611;SDS011;19030;49.478;8.986;2023-03-12T10:39:20;20.85;;;10.85;;
32611;SDS011;19030;49.478;8.986;2023-03-12T10:41:22;17.52;;;10.70;;
32611;SDS011;19030;49.478;8.986;2023-03-12T10:43:24;18.63;;;8.38;;
32611;SDS011;19030;49.478;8.986;2023-03-12T10:45:33;16.63;;;9.52;;
32611;SDS011;19030;49.478;8.986;2023-03-12T10:47:43;15.60;;;10.55;;
32611;SDS011;19030;49.478;8.986;2023-03-12T10:49:51;19.30;;;12.77;;
32611;SDS011;19030;49.478;8.986;2023-03-12T10:52:05;21.63;;;11.38;;
32611;SDS011;19030;49.478;8.986;2023-03-12T10:54:19;20.13;;;12.02;;
32611;SDS011;19030;49.478;8.986;2023-03-12T10:56:47;16.65;;;11.10;;
32611;SDS011;19030;49.478;8.986;2023-03-12T10:58:50;22.42;;;12.18;;
32611;SDS011;19030;49.478;8.986;2023-03-12T11:00:56;19.30;;;10.20;;
32611;SDS011;19030;49.478;8.986;2023-03-12T11:03:02;18.13;;;9.50;;
32611;SDS011;19030;49.478;8.986;2023-03-12T11:05:17;20.30;;;11.68;;
32611;SDS011;19030;49.478;8.986;2023-03-12T11:07:27;19.23;;;10.60;;
32611;SDS011;19030;49.478;8.986;2023-03-12T11:09:34;14.63;;;9.00;;
32611;SDS011;19030;49.478;8.986;2023-03-12T11:11:35;14.07;;;9.43;;
32611;SDS011;19030;49.478;8.986;2023-03-12T11:13:37;16.38;;;9.15;;
32611;SDS011;19030;49.478;8.986;2023-03-12T11:15:41;16.17;;;9.38;;
32611;SDS011;19030;49.478;8.986;2023-03-12T11:17:42;16.42;;;9.73;;
32611;SDS011;19030;49.478;8.986;2023-03-12T11:19:42;15.40;;;9.63;;
32611;SDS011;19030;49.478;8.986;2023-03-12T11:21:53;14.63;;;9.10;;
32611;SDS011;19030;49.478;8.986;2023-03-12T11:24:11;16.90;;;10.18;;
32611;SDS011;19030;49.478;8.986;2023-03-12T11:26:15;20.08;;;10.45;;
32611;SDS011;19030;49.478;8.986;2023-03-12T11:28:21;18.15;;;10.50;;
32611;SDS011;19030;49.478;8.986;2023-03-12T11:30:35;17.27;;;10.40;;
32611;SDS011;19030;49.478;8.986;2023-03-12T11:32:45;18.67;;;9.35;;
32611;SDS011;19030;49.478;8.986;2023-03-12T11:34:48;18.77;;;10.18;;
32611;SDS011;19030;49.478;8.986;2023-03-12T11:39:28;16.98;;;10.48;;
32611;SDS011;19030;49.478;8.986;2023-03-12T11:41:58;18.30;;;10.97;;
32611;SDS011;19030;49.478;8.986;2023-03-12T11:44:03;20.67;;;11.38;;
32611;SDS011;19030;49.478;8.986;2023-03-12T11:46:40;22.42;;;12.05;;
32611;SDS011;19030;49.478;8.986;2023-03-12T11:48:54;22.27;;;11.73;;
32611;SDS011;19030;49.478;8.986;2023-03-12T11:51:17;20.95;;;10.32;;
32611;SDS011;19030;49.478;8.986;2023-03-12T12:00:44;18.15;;;11.02;;
32611;SDS011;19030;49.478;8.986;2023-03-12T12:05:27;36.67;;;19.48;;
32611;SDS011;19030;49.478;8.986;2023-03-12T12:14:28;24.92;;;12.82;;
32611;SDS011;19030;49.478;8.986;2023-03-12T12:24:08;17.00;;;10.68;;
32611;SDS011;19030;49.478;8.986;2023-03-12T12:28:44;18.85;;;11.05;;
32611;SDS011;19030;49.478;8.986;2023-03-12T12:36:31;22.70;;;16.55;;
32611;SDS011;19030;49.478;8.986;2023-03-12T12:38:38;22.00;;;13.07;;
32611;SDS011;19030;49.478;8.986;2023-03-12T12:40:44;19.40;;;11.55;;
32611;SDS011;19030;49.478;8.986;2023-03-12T12:42:55;25.88;;;14.40;;
32611;SDS011;19030;49.478;8.986;2023-03-12T12:45:03;21.88;;;13.52;;
32611;SDS011;19030;49.478;8.986;2023-03-12T12:47:05;20.60;;;12.48;;
32611;SDS011;19030;49.478;8.986;2023-03-12T12:51:24;22.58;;;12.98;;
32611;SDS011;19030;49.478;8.986;2023-03-12T12:53:31;22.65;;;13.65;;
32611;SDS011;19030;49.478;8.986;2023-03-12T12:55:39;27.05;;;14.38;;
32611;SDS011;19030;49.478;8.986;2023-03-12T12:58:09;22.35;;;14.13;;
32611;SDS011;19030;49.478;8.986;2023-03-12T13:02:47;27.63;;;14.88;;
32611;SDS011;19030;49.478;8.986;2023-03-12T13:04:48;28.65;;;17.25;;
32611;SDS011;19030;49.478;8.986;2023-03-12T13:06:53;20.92;;;13.43;;
32611;SDS011;19030;49.478;8.986;2023-03-12T13:08:58;27.30;;;14.25;;
32611;SDS011;19030;49.478;8.986;2023-03-12T13:11:21;20.85;;;13.00;;
32611;SDS011;19030;49.478;8.986;2023-03-12T13:13:25;23.15;;;13.88;;
32611;SDS011;19030;49.478;8.986;2023-03-12T13:19:37;21.50;;;13.52;;
32611;SDS011;19030;49.478;8.986;2023-03-12T13:24:18;20.45;;;13.07;;
32611;SDS011;19030;49.478;8.986;2023-03-12T13:26:30;23.98;;;14.32;;
32611;SDS011;19030;49.478;8.986;2023-03-12T13:28:56;25.50;;;14.32;;
32611;SDS011;19030;49.478;8.986;2023-03-12T13:33:35;22.42;;;13.18;;